createdAt,value
2022-10-08T00:01:23.624Z,6.60
2022-10-08T00:03:55.036Z,6.00
2022-10-08T00:06:26.659Z,6.10
2022-10-08T00:09:07.640Z,6.10
2022-10-08T00:11:38.969Z,6.40
2022-10-08T00:14:09.166Z,6.60
2022-10-08T00:16:40.773Z,6.50
2022-10-08T00:19:16.678Z,6.60
2022-10-08T00:21:46.130Z,6.40
2022-10-08T00:24:17.623Z,6.40
2022-10-08T00:26:46.260Z,7.20
2022-10-08T00:29:17.510Z,7.60
2022-10-08T00:31:47.990Z,6.50
2022-10-08T00:34:23.296Z,6.60
2022-10-08T00:36:53.441Z,7.00
2022-10-08T00:39:23.764Z,7.20
2022-10-08T00:41:54.064Z,6.70
2022-10-08T00:44:47.047Z,6.50
2022-10-08T00:47:22.795Z,6.70
2022-10-08T00:49:54.746Z,6.80
2022-10-08T00:52:25.489Z,6.80
2022-10-08T00:54:53.313Z,6.70
2022-10-08T00:57:21.987Z,7.40
2022-10-08T00:59:49.726Z,7.20
2022-10-08T01:02:19.366Z,6.60
2022-10-08T01:04:47.987Z,6.70
2022-10-08T01:07:23.828Z,6.40
2022-10-08T01:10:12.849Z,5.80
2022-10-08T01:12:58.294Z,7.00
2022-10-08T01:15:36.405Z,6.80
2022-10-08T01:18:22.054Z,7.50
2022-10-08T01:21:05.835Z,6.50
2022-10-08T01:24:03.963Z,7.00
2022-10-08T01:26:46.821Z,7.60
2022-10-08T01:29:28.483Z,7.20
2022-10-08T01:32:03.377Z,6.90
2022-10-08T01:34:38.340Z,6.80
2022-10-08T01:37:11.126Z,7.10
2022-10-08T01:39:40.584Z,6.60
2022-10-08T01:42:11.022Z,6.40
2022-10-08T01:44:47.202Z,6.80
2022-10-08T01:47:20.432Z,7.70
2022-10-08T01:49:58.959Z,7.20
2022-10-08T01:52:31.648Z,7.30
2022-10-08T01:55:04.275Z,7.50
2022-10-08T01:57:34.881Z,7.00
2022-10-08T02:00:13.158Z,7.30
2022-10-08T02:02:42.743Z,6.60
2022-10-08T02:05:11.697Z,7.20
2022-10-08T02:07:44.726Z,6.90
2022-10-08T02:10:22.676Z,6.70
2022-10-08T02:12:50.624Z,7.30
2022-10-08T02:15:25.347Z,6.90
2022-10-08T02:18:06.493Z,7.30
2022-10-08T02:20:39.936Z,7.10
2022-10-08T02:23:21.798Z,7.20
2022-10-08T02:25:51.743Z,7.60
2022-10-08T02:28:30.603Z,6.90
2022-10-08T02:31:24.082Z,7.60
2022-10-08T02:34:01.294Z,7.10
2022-10-08T02:36:35.275Z,6.80
2022-10-08T02:39:05.204Z,7.60
2022-10-08T02:41:42.400Z,7.20
2022-10-08T02:44:20.050Z,7.00
2022-10-08T02:46:52.665Z,7.00
2022-10-08T02:49:29.098Z,7.40
2022-10-08T02:51:59.328Z,7.00
2022-10-08T02:54:32.040Z,7.00
2022-10-08T02:57:24.474Z,7.50
2022-10-08T02:59:52.411Z,6.60
2022-10-08T03:02:32.124Z,7.00
2022-10-08T03:05:05.752Z,7.30
2022-10-08T03:07:35.712Z,7.30
2022-10-08T03:10:06.695Z,7.60
2022-10-08T03:12:34.806Z,7.30
2022-10-08T03:15:02.632Z,7.40
2022-10-08T03:17:38.363Z,8.00
2022-10-08T03:20:08.679Z,7.40
2022-10-08T03:22:36.943Z,7.10
2022-10-08T03:25:05.860Z,7.80
2022-10-08T03:27:35.243Z,7.10
2022-10-08T03:30:04.317Z,7.10
2022-10-08T03:32:32.509Z,7.00
2022-10-08T03:35:00.214Z,7.80
2022-10-08T03:37:27.867Z,7.60
2022-10-08T03:39:55.441Z,7.20
2022-10-08T03:42:23.172Z,7.80
2022-10-08T03:44:50.739Z,8.00
2022-10-08T03:47:18.520Z,7.50
2022-10-08T03:49:46.221Z,7.30
2022-10-08T03:52:14.615Z,7.60
2022-10-08T03:54:42.329Z,7.50
2022-10-08T03:57:10.022Z,7.50
2022-10-08T03:59:37.586Z,7.40
2022-10-08T04:02:05.499Z,7.00
2022-10-08T04:04:33.172Z,6.90
2022-10-08T04:07:00.910Z,7.50
2022-10-08T04:09:28.619Z,7.10
2022-10-08T04:11:56.404Z,8.10
2022-10-08T04:14:24.083Z,7.70
2022-10-08T04:16:54.503Z,7.90
2022-10-08T04:19:22.268Z,8.30
2022-10-08T04:21:49.824Z,8.00
2022-10-08T04:24:18.059Z,7.80
2022-10-08T04:26:45.683Z,8.50
2022-10-08T04:29:13.615Z,8.40
2022-10-08T04:31:41.266Z,8.70
2022-10-08T04:34:10.869Z,7.90
2022-10-08T04:36:39.076Z,8.60
2022-10-08T04:39:07.026Z,8.80
2022-10-08T04:41:34.706Z,8.70
2022-10-08T04:44:02.408Z,8.00
2022-10-08T04:46:30.814Z,9.30
2022-10-08T04:48:59.259Z,8.20
2022-10-08T04:51:27.591Z,8.90
2022-10-08T04:53:56.757Z,9.10
2022-10-08T04:56:27.292Z,8.60
2022-10-08T04:58:56.123Z,9.00
2022-10-08T05:01:24.672Z,9.10
2022-10-08T05:03:55.117Z,8.90
2022-10-08T05:06:25.835Z,9.50
2022-10-08T05:08:53.947Z,9.30
2022-10-08T05:11:25.522Z,9.00
2022-10-08T05:13:55.828Z,9.50
2022-10-08T05:16:24.719Z,8.90
2022-10-08T05:18:53.077Z,8.70
2022-10-08T05:21:24.062Z,9.80
2022-10-08T05:24:04.747Z,10.40
2022-10-08T05:26:56.833Z,9.80
2022-10-08T05:29:24.077Z,8.90
2022-10-08T05:31:51.732Z,8.70
2022-10-08T05:34:19.444Z,9.50
2022-10-08T05:36:47.425Z,9.20
2022-10-08T05:39:15.470Z,9.80
2022-10-08T05:41:43.460Z,10.10
2022-10-08T05:44:12.342Z,8.80
2022-10-08T05:46:40.594Z,9.00
2022-10-08T05:49:16.309Z,9.40
2022-10-08T05:51:44.393Z,9.60
2022-10-08T05:54:11.986Z,9.10
2022-10-08T05:56:39.613Z,9.90
2022-10-08T05:59:07.893Z,9.60
2022-10-08T06:01:35.550Z,10.60
2022-10-08T06:04:09.009Z,9.60
2022-10-08T06:06:38.948Z,9.90
2022-10-08T06:09:07.906Z,9.50
2022-10-08T06:11:36.741Z,9.70
2022-10-08T06:16:35.278Z,10.00
2022-10-08T06:21:31.900Z,9.80
2022-10-08T06:24:01.938Z,9.40
2022-10-08T06:26:35.612Z,9.60
2022-10-08T06:29:10.802Z,9.80
2022-10-08T06:31:42.162Z,9.70
2022-10-08T06:34:10.416Z,10.20
2022-10-08T06:36:38.116Z,10.10
2022-10-08T06:39:10.069Z,9.90
2022-10-08T06:41:38.614Z,10.40
2022-10-08T06:44:10.007Z,9.30
2022-10-08T06:46:37.658Z,9.10
2022-10-08T06:49:06.422Z,9.60
2022-10-08T06:51:34.870Z,10.10
2022-10-08T06:54:07.472Z,9.30
2022-10-08T06:56:38.375Z,10.10
2022-10-08T06:59:07.115Z,9.40
2022-10-08T07:01:36.149Z,9.70
2022-10-08T07:04:05.685Z,9.70
2022-10-08T07:06:33.393Z,10.00
2022-10-08T07:09:02.166Z,9.50
2022-10-08T07:11:32.241Z,10.30
2022-10-08T07:14:00.622Z,9.80
2022-10-08T07:16:28.644Z,9.50
2022-10-08T07:18:58.885Z,10.60
2022-10-08T07:21:29.102Z,9.90
2022-10-08T07:23:59.836Z,8.90
2022-10-08T07:26:32.374Z,9.90
2022-10-08T07:29:06.235Z,10.70
2022-10-08T07:31:37.607Z,10.80
2022-10-08T07:34:10.310Z,10.90
2022-10-08T07:36:38.865Z,8.80
2022-10-08T07:39:10.827Z,9.90
2022-10-08T07:41:38.586Z,9.60
2022-10-08T07:44:06.710Z,9.00
2022-10-08T07:46:36.657Z,10.00
2022-10-08T07:49:04.804Z,9.60
2022-10-08T07:51:34.116Z,9.40
2022-10-08T07:54:03.459Z,10.30
2022-10-08T07:56:32.456Z,9.70
2022-10-08T07:59:01.811Z,9.90
2022-10-08T08:01:30.983Z,9.70
2022-10-08T08:04:09.735Z,8.70
2022-10-08T08:06:43.684Z,9.40
2022-10-08T08:09:11.804Z,10.70
2022-10-08T08:11:40.250Z,10.00
2022-10-08T08:14:08.262Z,9.80
2022-10-08T08:16:36.226Z,9.80
2022-10-08T08:19:04.638Z,10.40
2022-10-08T08:21:35.436Z,9.30
2022-10-08T08:24:06.431Z,9.20
2022-10-08T08:26:36.734Z,9.80
2022-10-08T08:29:16.807Z,9.10
2022-10-08T08:31:46.761Z,9.20
2022-10-08T08:34:20.816Z,9.90
2022-10-08T08:36:49.955Z,9.60
2022-10-08T08:39:23.034Z,9.70
2022-10-08T08:42:20.771Z,9.90
2022-10-08T08:44:56.669Z,9.40
2022-10-08T08:47:41.630Z,10.10
2022-10-08T08:50:25.135Z,9.80
2022-10-08T08:52:52.954Z,10.70
2022-10-08T08:55:30.435Z,9.90
2022-10-08T08:58:09.962Z,11.40
2022-10-08T09:00:42.211Z,9.60
2022-10-08T09:03:30.323Z,10.20
2022-10-08T09:06:02.704Z,10.10
2022-10-08T09:08:45.714Z,10.30
2022-10-08T09:11:17.503Z,9.30
2022-10-08T09:13:53.177Z,9.90
2022-10-08T09:16:20.798Z,9.60
2022-10-08T09:18:51.368Z,10.50
2022-10-08T09:21:20.595Z,9.50
2022-10-08T09:23:48.239Z,10.40
2022-10-08T09:26:26.882Z,9.50
2022-10-08T09:28:57.299Z,9.40
2022-10-08T09:31:40.228Z,9.60
2022-10-08T09:34:10.854Z,9.40
2022-10-08T09:36:52.586Z,9.40
2022-10-08T09:39:24.728Z,9.70
2022-10-08T09:42:04.740Z,9.90
2022-10-08T09:44:56.616Z,9.80
2022-10-08T09:47:27.171Z,9.70
2022-10-08T09:50:19.508Z,10.50
2022-10-08T09:52:50.649Z,10.40
2022-10-08T09:55:32.635Z,10.00
2022-10-08T09:58:01.179Z,10.10
2022-10-08T10:00:39.699Z,9.80
2022-10-08T10:03:17.985Z,8.70
2022-10-08T10:05:52.021Z,8.70
2022-10-08T10:08:46.742Z,8.70
2022-10-08T10:11:22.018Z,8.90
2022-10-08T10:13:50.938Z,8.00
2022-10-08T10:16:33.205Z,8.10
2022-10-08T10:19:07.497Z,8.10
2022-10-08T10:21:59.791Z,8.10
2022-10-08T10:24:56.121Z,8.20
2022-10-08T10:27:31.876Z,8.70
2022-10-08T10:30:03.275Z,8.40
2022-10-08T10:32:38.512Z,6.90
2022-10-08T10:35:13.623Z,8.20
2022-10-08T10:37:52.702Z,8.60
2022-10-08T10:40:28.830Z,8.00
2022-10-08T10:43:06.967Z,7.60
2022-10-08T10:45:35.206Z,8.10
2022-10-08T10:48:05.105Z,7.30
2022-10-08T10:50:59.138Z,7.10
2022-10-08T10:53:49.423Z,7.70
2022-10-08T10:56:19.699Z,8.50
2022-10-08T10:59:08.881Z,8.20
2022-10-08T11:01:48.402Z,7.70
2022-10-08T11:04:38.422Z,8.90
2022-10-08T11:07:30.151Z,8.50
2022-10-08T11:10:03.288Z,8.10
2022-10-08T11:12:52.967Z,8.80
2022-10-08T11:15:33.700Z,8.40
2022-10-08T11:18:12.985Z,9.00
2022-10-08T11:20:59.593Z,9.10
2022-10-08T11:23:42.270Z,8.70
2022-10-08T11:26:25.322Z,8.90
2022-10-08T11:29:20.835Z,9.20
2022-10-08T11:31:51.662Z,9.30
2022-10-08T11:34:22.056Z,8.80
2022-10-08T11:37:01.940Z,8.20
2022-10-08T11:40:00.857Z,9.20
2022-10-08T11:42:42.986Z,8.90
2022-10-08T11:45:37.086Z,8.90
2022-10-08T11:48:35.488Z,9.60
2022-10-08T11:51:19.040Z,9.10
2022-10-08T11:54:09.678Z,9.60
2022-10-08T11:56:40.758Z,9.50
2022-10-08T11:59:26.720Z,9.50
2022-10-08T12:02:20.415Z,9.00
2022-10-08T12:04:50.499Z,9.40
2022-10-08T12:07:34.610Z,9.80
2022-10-08T12:10:05.402Z,10.50
2022-10-08T12:12:51.776Z,10.80
2022-10-08T12:15:25.468Z,10.50
2022-10-08T12:17:57.660Z,10.40
2022-10-08T12:20:34.067Z,11.20
2022-10-08T12:23:10.547Z,10.60
2022-10-08T12:25:48.986Z,11.00
2022-10-08T12:28:19.853Z,11.30
2022-10-08T12:30:51.733Z,11.50
2022-10-08T12:33:21.234Z,11.30
2022-10-08T12:36:13.380Z,11.60
2022-10-08T12:38:54.573Z,12.40
2022-10-08T12:41:29.933Z,11.20
2022-10-08T12:44:31.546Z,11.10
2022-10-08T12:47:19.121Z,10.50
2022-10-08T12:49:57.039Z,12.20
2022-10-08T12:52:26.099Z,12.80
2022-10-08T12:55:00.043Z,12.00
2022-10-08T12:57:33.737Z,11.70
2022-10-08T13:00:11.012Z,12.20
2022-10-08T13:02:41.987Z,12.30
2022-10-08T13:05:30.633Z,12.40
2022-10-08T13:10:28.981Z,12.70
2022-10-08T13:13:20.687Z,12.40
2022-10-08T13:15:59.131Z,13.00
2022-10-08T13:18:29.542Z,12.40
2022-10-08T13:21:01.831Z,12.40
2022-10-08T13:23:36.176Z,12.90
2022-10-08T13:26:04.014Z,12.80
2022-10-08T13:28:59.036Z,13.30
2022-10-08T13:31:24.133Z,13.50
2022-10-08T13:33:52.420Z,14.10
2022-10-08T13:36:23.135Z,13.30
2022-10-08T13:38:51.669Z,12.30
2022-10-08T13:41:23.693Z,13.80
2022-10-08T13:43:51.907Z,13.80
2022-10-08T13:46:19.917Z,14.00
2022-10-08T13:48:47.721Z,14.20
2022-10-08T13:51:15.814Z,13.20
2022-10-08T13:53:45.952Z,14.00
2022-10-08T13:56:13.828Z,14.80
2022-10-08T13:58:41.776Z,14.50
2022-10-08T14:01:09.662Z,14.50
2022-10-08T14:03:37.503Z,13.50
2022-10-08T14:06:05.604Z,14.00
2022-10-08T14:08:34.544Z,14.00
2022-10-08T14:11:02.194Z,14.20
2022-10-08T14:13:30.130Z,13.40
2022-10-08T14:15:57.948Z,13.70
2022-10-08T14:18:26.565Z,12.90
2022-10-08T14:20:54.532Z,14.20
2022-10-08T14:23:22.376Z,13.20
2022-10-08T14:25:51.862Z,14.40
2022-10-08T14:28:19.808Z,14.60
2022-10-08T14:30:47.534Z,14.20
2022-10-08T14:33:15.133Z,15.00
2022-10-08T14:35:42.895Z,14.90
2022-10-08T14:38:10.787Z,13.90
2022-10-08T14:40:39.183Z,14.60
2022-10-08T14:43:06.919Z,14.10
2022-10-08T14:45:34.940Z,14.00
2022-10-08T14:48:02.596Z,13.40
2022-10-08T14:50:30.632Z,12.80
2022-10-08T14:52:58.480Z,13.10
2022-10-08T14:55:26.199Z,13.70
2022-10-08T14:57:53.992Z,12.30
2022-10-08T15:00:21.925Z,12.70
2022-10-08T15:02:49.888Z,12.70
2022-10-08T15:05:17.966Z,13.20
2022-10-08T15:07:46.324Z,12.90
2022-10-08T15:10:14.135Z,13.40
2022-10-08T15:12:43.519Z,12.40
2022-10-08T15:15:11.500Z,13.50
2022-10-08T15:17:39.099Z,12.60
2022-10-08T15:20:07.400Z,12.90
2022-10-08T15:22:35.346Z,10.20
2022-10-08T15:25:03.179Z,11.70
2022-10-08T15:27:31.277Z,11.20
2022-10-08T15:29:59.115Z,10.70
2022-10-08T15:32:30.372Z,9.20
2022-10-08T15:34:58.494Z,8.80
2022-10-08T15:37:26.376Z,8.90
2022-10-08T15:39:54.003Z,9.30
2022-10-08T15:42:21.923Z,8.30
2022-10-08T15:44:50.518Z,9.90
2022-10-08T15:47:18.576Z,9.40
2022-10-08T15:49:55.736Z,9.20
2022-10-08T15:52:33.332Z,7.50
2022-10-08T15:58:00.927Z,6.80
2022-10-08T16:00:37.846Z,7.40
2022-10-08T16:03:05.880Z,6.50
2022-10-08T16:05:33.864Z,6.90
2022-10-08T16:08:01.720Z,6.90
2022-10-08T16:10:29.419Z,5.70
2022-10-08T16:12:57.309Z,6.10
2022-10-08T16:15:24.893Z,6.50
2022-10-08T16:17:52.746Z,6.00
2022-10-08T16:20:20.545Z,5.70
2022-10-08T16:22:48.347Z,5.30
2022-10-08T16:25:16.461Z,4.20
2022-10-08T16:27:44.502Z,5.10
2022-10-08T16:30:12.535Z,7.60
2022-10-08T16:32:40.210Z,5.30
2022-10-08T16:35:08.563Z,5.10
2022-10-08T16:37:36.264Z,5.20
2022-10-08T16:40:04.315Z,4.20
2022-10-08T16:42:32.491Z,4.50
2022-10-08T16:45:00.191Z,5.00
2022-10-08T16:47:31.643Z,6.10
2022-10-08T16:49:59.886Z,4.80
2022-10-08T16:52:33.784Z,4.50
2022-10-08T16:55:01.578Z,4.00
2022-10-08T16:57:29.190Z,4.70
2022-10-08T16:59:57.790Z,4.00
2022-10-08T17:02:27.238Z,4.50
2022-10-08T17:04:54.918Z,4.10
2022-10-08T17:07:22.969Z,5.00
2022-10-08T17:09:52.266Z,7.00
2022-10-08T17:12:22.015Z,11.00
2022-10-08T17:14:50.255Z,10.80
2022-10-08T17:17:18.338Z,8.60
2022-10-08T17:19:45.931Z,9.30
2022-10-08T17:22:16.619Z,6.00
2022-10-08T17:24:44.794Z,5.70
2022-10-08T17:27:13.422Z,4.70
2022-10-08T17:29:41.224Z,4.50
2022-10-08T17:32:11.420Z,4.50
2022-10-08T17:34:39.046Z,4.30
2022-10-08T17:37:07.230Z,5.20
2022-10-08T17:39:35.554Z,5.70
2022-10-08T17:42:06.957Z,5.00
2022-10-08T17:44:35.504Z,5.60
2022-10-08T17:47:03.696Z,5.40
2022-10-08T17:49:32.818Z,5.50
2022-10-08T17:54:28.492Z,5.60
2022-10-08T17:56:56.189Z,6.50
2022-10-08T17:59:24.143Z,6.20
2022-10-08T18:01:52.043Z,6.60
2022-10-08T18:04:19.740Z,6.20
2022-10-08T18:06:48.206Z,5.70
2022-10-08T18:09:21.181Z,5.60
2022-10-08T18:11:53.522Z,6.00
2022-10-08T18:14:22.393Z,5.70
2022-10-08T18:16:50.515Z,6.90
2022-10-08T18:19:18.791Z,5.00
2022-10-08T18:21:47.333Z,5.20
2022-10-08T18:24:16.702Z,4.90
2022-10-08T18:26:45.062Z,4.40
2022-10-08T18:29:14.081Z,3.90
2022-10-08T18:31:43.973Z,4.80
2022-10-08T18:34:15.697Z,4.50
2022-10-08T18:36:44.806Z,4.80
2022-10-08T18:39:18.319Z,4.50
2022-10-08T18:41:50.306Z,4.40
2022-10-08T18:44:24.080Z,4.30
2022-10-08T18:46:52.817Z,4.30
2022-10-08T18:49:30.944Z,5.20
2022-10-08T18:54:27.659Z,5.40
2022-10-08T18:56:57.125Z,4.60
2022-10-08T18:59:25.023Z,4.90
2022-10-08T19:01:56.954Z,4.20
2022-10-08T19:04:27.107Z,4.70
2022-10-08T19:06:54.868Z,4.70
2022-10-08T19:09:22.652Z,4.40
2022-10-08T19:11:53.414Z,4.50
2022-10-08T19:14:22.663Z,3.90
2022-10-08T19:16:50.735Z,3.80
2022-10-08T19:19:24.607Z,4.10
2022-10-08T19:21:54.337Z,3.90
2022-10-08T19:24:25.523Z,3.20
2022-10-08T19:26:54.464Z,2.90
2022-10-08T19:29:26.564Z,3.60
2022-10-08T19:31:54.631Z,2.60
2022-10-08T19:34:25.034Z,2.90
2022-10-08T19:36:52.824Z,2.40
2022-10-08T19:39:23.620Z,2.20
2022-10-08T19:41:51.695Z,2.50
2022-10-08T19:44:20.550Z,3.10
2022-10-08T19:46:48.671Z,3.20
2022-10-08T19:49:16.510Z,2.70
2022-10-08T19:51:44.624Z,2.80
2022-10-08T19:54:13.079Z,2.30
2022-10-08T19:56:41.715Z,2.70
2022-10-08T19:59:10.436Z,2.40
2022-10-08T20:01:39.866Z,2.60
2022-10-08T20:04:09.362Z,2.80
2022-10-08T20:06:39.601Z,2.60
2022-10-08T20:09:11.880Z,2.60
2022-10-08T20:11:41.969Z,2.70
2022-10-08T20:14:10.539Z,3.10
2022-10-08T20:16:40.288Z,2.60
2022-10-08T20:19:14.630Z,2.80
2022-10-08T20:21:43.152Z,2.70
2022-10-08T20:24:11.657Z,3.00
2022-10-08T20:26:40.842Z,3.00
2022-10-08T20:31:40.841Z,3.20
2022-10-08T20:34:12.827Z,3.20
2022-10-08T20:36:41.224Z,3.10
2022-10-08T20:39:11.121Z,3.20
2022-10-08T20:41:38.833Z,3.20
2022-10-08T20:44:07.997Z,3.50
2022-10-08T20:46:37.218Z,3.70
2022-10-08T20:49:06.107Z,3.40
2022-10-08T20:51:34.179Z,3.40
2022-10-08T20:54:04.772Z,3.40
2022-10-08T20:56:39.221Z,3.60
2022-10-08T20:59:09.865Z,3.50
2022-10-08T21:01:38.890Z,3.40
2022-10-08T21:04:07.248Z,3.60
2022-10-08T21:06:41.164Z,4.40
2022-10-08T21:09:09.201Z,3.10
2022-10-08T21:11:38.432Z,3.10
2022-10-08T21:14:08.245Z,3.30
2022-10-08T21:16:40.233Z,4.10
2022-10-08T21:19:13.161Z,3.10
2022-10-08T21:21:41.645Z,3.10
2022-10-08T21:24:09.377Z,3.60
2022-10-08T21:26:39.678Z,3.20
2022-10-08T21:29:09.451Z,3.00
2022-10-08T21:31:39.155Z,3.40
2022-10-08T21:34:07.711Z,3.30
2022-10-08T21:36:38.906Z,2.90
2022-10-08T21:39:08.704Z,2.90
2022-10-08T21:41:37.422Z,2.80
2022-10-08T21:44:06.998Z,2.70
2022-10-08T21:46:39.226Z,2.70
2022-10-08T21:49:11.313Z,2.60
2022-10-08T21:51:39.258Z,3.70
2022-10-08T21:54:07.937Z,3.20
2022-10-08T21:56:38.156Z,3.20
2022-10-08T21:59:07.898Z,3.00
2022-10-08T22:01:38.810Z,3.20
2022-10-08T22:04:09.881Z,3.00
2022-10-08T22:06:42.819Z,2.90
2022-10-08T22:09:15.222Z,3.50
2022-10-08T22:11:43.202Z,3.70
2022-10-08T22:14:11.203Z,3.20
2022-10-08T22:16:38.971Z,3.10
2022-10-08T22:19:06.924Z,3.00
2022-10-08T22:21:35.365Z,3.50
2022-10-08T22:24:04.063Z,3.70
2022-10-08T22:26:38.452Z,4.60
2022-10-08T22:29:06.671Z,4.20
2022-10-08T22:31:35.431Z,4.00
2022-10-08T22:34:03.514Z,3.80
2022-10-08T22:36:32.979Z,4.80
2022-10-08T22:39:00.969Z,4.70
2022-10-08T22:41:31.749Z,4.40
2022-10-08T22:43:59.827Z,4.30
2022-10-08T22:46:30.660Z,4.10
2022-10-08T22:49:00.671Z,3.70
2022-10-08T22:51:29.212Z,4.50
2022-10-08T22:53:57.422Z,2.90
2022-10-08T22:56:29.601Z,3.40
2022-10-08T22:58:58.937Z,3.00
2022-10-08T23:01:28.360Z,2.90
2022-10-08T23:03:56.721Z,2.40
2022-10-08T23:06:33.115Z,2.50
2022-10-08T23:09:04.576Z,2.40
2022-10-08T23:11:32.558Z,3.00
2022-10-08T23:14:00.941Z,2.60
2022-10-08T23:16:31.205Z,2.40
2022-10-08T23:19:04.297Z,2.90
2022-10-08T23:21:33.263Z,2.80
2022-10-08T23:24:01.465Z,3.10
2022-10-08T23:26:29.585Z,2.80
2022-10-08T23:29:00.420Z,2.70
2022-10-08T23:31:34.165Z,3.00
2022-10-08T23:34:03.180Z,2.40
2022-10-08T23:36:34.792Z,2.90
2022-10-08T23:39:02.630Z,2.60
2022-10-08T23:41:30.523Z,2.80
2022-10-08T23:43:59.233Z,3.10
2022-10-08T23:46:29.389Z,3.00
2022-10-08T23:48:59.115Z,3.60
2022-10-08T23:51:28.425Z,2.70
2022-10-08T23:53:56.366Z,2.70
2022-10-08T23:56:24.996Z,3.10
2022-10-08T23:58:52.894Z,3.20
